sensor_id;sensor_type;location;lat;lon;timestamp;P1;durP1;ratioP1;P2;durP2;ratioP2
33826;SDS011;20128;45.582;5.298;2022-08-19T00:01:25;5.90;;;3.65;;
33826;SDS011;20128;45.582;5.298;2022-08-19T00:03:54;6.25;;;3.97;;
33826;SDS011;20128;45.582;5.298;2022-08-19T00:06:20;5.60;;;3.50;;
33826;SDS011;20128;45.582;5.298;2022-08-19T00:08:46;8.68;;;3.75;;
33826;SDS011;20128;45.582;5.298;2022-08-19T00:11:12;4.93;;;3.53;;
33826;SDS011;20128;45.582;5.298;2022-08-19T00:13:37;5.38;;;4.38;;
33826;SDS011;20128;45.582;5.298;2022-08-19T00:16:03;6.20;;;3.95;;
33826;SDS011;20128;45.582;5.298;2022-08-19T00:18:30;5.78;;;3.88;;
33826;SDS011;20128;45.582;5.298;2022-08-19T00:20:56;5.63;;;3.90;;
33826;SDS011;20128;45.582;5.298;2022-08-19T00:23:22;6.28;;;4.88;;
33826;SDS011;20128;45.582;5.298;2022-08-19T00:25:48;8.02;;;5.25;;
33826;SDS011;20128;45.582;5.298;2022-08-19T00:28:14;5.00;;;4.50;;
33826;SDS011;20128;45.582;5.298;2022-08-19T00:30:39;5.57;;;4.80;;
33826;SDS011;20128;45.582;5.298;2022-08-19T00:33:06;6.03;;;4.82;;
33826;SDS011;20128;45.582;5.298;2022-08-19T00:35:33;8.55;;;5.25;;
33826;SDS011;20128;45.582;5.298;2022-08-19T00:37:58;7.90;;;4.97;;
33826;SDS011;20128;45.582;5.298;2022-08-19T00:40:24;5.40;;;4.75;;
33826;SDS011;20128;45.582;5.298;2022-08-19T00:42:51;6.35;;;4.78;;
33826;SDS011;20128;45.582;5.298;2022-08-19T00:45:19;7.70;;;5.60;;
33826;SDS011;20128;45.582;5.298;2022-08-19T00:47:47;6.63;;;4.45;;
33826;SDS011;20128;45.582;5.298;2022-08-19T00:50:13;8.43;;;5.32;;
33826;SDS011;20128;45.582;5.298;2022-08-19T00:52:42;7.70;;;5.03;;
33826;SDS011;20128;45.582;5.298;2022-08-19T00:55:12;5.93;;;4.47;;
33826;SDS011;20128;45.582;5.298;2022-08-19T00:57:44;7.78;;;5.05;;
33826;SDS011;20128;45.582;5.298;2022-08-19T01:00:14;7.20;;;4.95;;
33826;SDS011;20128;45.582;5.298;2022-08-19T01:02:42;11.15;;;5.30;;
33826;SDS011;20128;45.582;5.298;2022-08-19T01:05:11;10.27;;;6.18;;
33826;SDS011;20128;45.582;5.298;2022-08-19T01:07:46;5.95;;;4.97;;
33826;SDS011;20128;45.582;5.298;2022-08-19T01:10:14;7.03;;;5.75;;
33826;SDS011;20128;45.582;5.298;2022-08-19T01:12:43;9.25;;;6.05;;
33826;SDS011;20128;45.582;5.298;2022-08-19T01:15:11;7.35;;;5.50;;
33826;SDS011;20128;45.582;5.298;2022-08-19T01:17:41;7.93;;;5.97;;
33826;SDS011;20128;45.582;5.298;2022-08-19T01:20:15;6.45;;;5.75;;
33826;SDS011;20128;45.582;5.298;2022-08-19T01:22:45;7.90;;;6.43;;
33826;SDS011;20128;45.582;5.298;2022-08-19T01:25:19;10.75;;;7.32;;
33826;SDS011;20128;45.582;5.298;2022-08-19T01:27:47;9.80;;;6.25;;
33826;SDS011;20128;45.582;5.298;2022-08-19T01:30:16;8.70;;;6.97;;
33826;SDS011;20128;45.582;5.298;2022-08-19T01:32:49;7.90;;;6.28;;
33826;SDS011;20128;45.582;5.298;2022-08-19T01:35:16;12.20;;;7.13;;
33826;SDS011;20128;45.582;5.298;2022-08-19T01:37:59;9.10;;;6.75;;
33826;SDS011;20128;45.582;5.298;2022-08-19T01:40:31;7.65;;;6.85;;
33826;SDS011;20128;45.582;5.298;2022-08-19T01:42:58;9.73;;;6.60;;
33826;SDS011;20128;45.582;5.298;2022-08-19T01:45:25;6.18;;;5.28;;
33826;SDS011;20128;45.582;5.298;2022-08-19T01:47:53;13.15;;;7.03;;
33826;SDS011;20128;45.582;5.298;2022-08-19T01:50:19;8.77;;;5.90;;
33826;SDS011;20128;45.582;5.298;2022-08-19T01:52:46;8.85;;;6.18;;
33826;SDS011;20128;45.582;5.298;2022-08-19T01:55:14;8.52;;;5.68;;
33826;SDS011;20128;45.582;5.298;2022-08-19T01:57:44;6.55;;;5.22;;
33826;SDS011;20128;45.582;5.298;2022-08-19T02:00:16;6.45;;;5.75;;
33826;SDS011;20128;45.582;5.298;2022-08-19T02:02:43;7.28;;;5.90;;
33826;SDS011;20128;45.582;5.298;2022-08-19T02:05:10;5.90;;;5.03;;
33826;SDS011;20128;45.582;5.298;2022-08-19T02:07:37;8.30;;;5.75;;
33826;SDS011;20128;45.582;5.298;2022-08-19T02:10:04;8.65;;;4.75;;
33826;SDS011;20128;45.582;5.298;2022-08-19T02:12:32;7.28;;;6.10;;
33826;SDS011;20128;45.582;5.298;2022-08-19T02:14:58;9.32;;;5.07;;
33826;SDS011;20128;45.582;5.298;2022-08-19T02:17:26;6.38;;;5.18;;
33826;SDS011;20128;45.582;5.298;2022-08-19T02:19:53;6.63;;;5.70;;
33826;SDS011;20128;45.582;5.298;2022-08-19T02:22:19;8.40;;;5.47;;
33826;SDS011;20128;45.582;5.298;2022-08-19T02:24:44;6.38;;;4.55;;
33826;SDS011;20128;45.582;5.298;2022-08-19T02:27:11;6.72;;;5.60;;
33826;SDS011;20128;45.582;5.298;2022-08-19T02:29:37;5.63;;;4.18;;
33826;SDS011;20128;45.582;5.298;2022-08-19T02:32:02;6.78;;;5.63;;
33826;SDS011;20128;45.582;5.298;2022-08-19T02:34:29;7.93;;;5.15;;
33826;SDS011;20128;45.582;5.298;2022-08-19T02:36:55;12.73;;;6.35;;
33826;SDS011;20128;45.582;5.298;2022-08-19T02:39:21;6.53;;;4.70;;
33826;SDS011;20128;45.582;5.298;2022-08-19T02:41:46;7.43;;;4.20;;
33826;SDS011;20128;45.582;5.298;2022-08-19T02:44:12;9.27;;;4.82;;
33826;SDS011;20128;45.582;5.298;2022-08-19T02:46:37;7.93;;;5.72;;
33826;SDS011;20128;45.582;5.298;2022-08-19T02:49:04;7.25;;;4.80;;
33826;SDS011;20128;45.582;5.298;2022-08-19T02:51:33;7.40;;;4.18;;
33826;SDS011;20128;45.582;5.298;2022-08-19T02:54:02;8.48;;;3.75;;
33826;SDS011;20128;45.582;5.298;2022-08-19T02:56:29;8.50;;;4.72;;
33826;SDS011;20128;45.582;5.298;2022-08-19T02:58:55;5.90;;;4.57;;
33826;SDS011;20128;45.582;5.298;2022-08-19T03:01:26;8.32;;;4.57;;
33826;SDS011;20128;45.582;5.298;2022-08-19T03:03:57;5.20;;;4.30;;
33826;SDS011;20128;45.582;5.298;2022-08-19T03:06:25;6.65;;;4.05;;
33826;SDS011;20128;45.582;5.298;2022-08-19T03:08:51;4.50;;;4.10;;
33826;SDS011;20128;45.582;5.298;2022-08-19T03:11:27;5.63;;;4.82;;
33826;SDS011;20128;45.582;5.298;2022-08-19T03:13:55;7.53;;;4.40;;
33826;SDS011;20128;45.582;5.298;2022-08-19T03:16:22;10.65;;;5.00;;
33826;SDS011;20128;45.582;5.298;2022-08-19T03:18:49;7.10;;;3.60;;
33826;SDS011;20128;45.582;5.298;2022-08-19T03:21:16;5.30;;;4.05;;
33826;SDS011;20128;45.582;5.298;2022-08-19T03:23:44;9.60;;;4.55;;
33826;SDS011;20128;45.582;5.298;2022-08-19T03:26:10;7.40;;;4.82;;
33826;SDS011;20128;45.582;5.298;2022-08-19T03:28:36;5.43;;;3.90;;
33826;SDS011;20128;45.582;5.298;2022-08-19T03:31:03;8.15;;;4.97;;
33826;SDS011;20128;45.582;5.298;2022-08-19T03:33:35;6.82;;;4.72;;
33826;SDS011;20128;45.582;5.298;2022-08-19T03:36:11;10.75;;;5.80;;
33826;SDS011;20128;45.582;5.298;2022-08-19T03:38:47;7.80;;;3.80;;
33826;SDS011;20128;45.582;5.298;2022-08-19T03:41:20;6.07;;;4.47;;
33826;SDS011;20128;45.582;5.298;2022-08-19T03:43:48;6.88;;;4.75;;
33826;SDS011;20128;45.582;5.298;2022-08-19T03:46:15;7.97;;;5.10;;
33826;SDS011;20128;45.582;5.298;2022-08-19T03:48:45;8.70;;;4.97;;
33826;SDS011;20128;45.582;5.298;2022-08-19T03:51:19;6.85;;;4.05;;
33826;SDS011;20128;45.582;5.298;2022-08-19T03:53:47;9.57;;;4.78;;
33826;SDS011;20128;45.582;5.298;2022-08-19T03:56:14;10.63;;;4.20;;
33826;SDS011;20128;45.582;5.298;2022-08-19T03:58:40;6.38;;;5.47;;
33826;SDS011;20128;45.582;5.298;2022-08-19T04:01:10;6.88;;;5.15;;
33826;SDS011;20128;45.582;5.298;2022-08-19T04:03:37;5.78;;;4.60;;
33826;SDS011;20128;45.582;5.298;2022-08-19T04:06:11;5.72;;;4.20;;
33826;SDS011;20128;45.582;5.298;2022-08-19T04:08:41;8.90;;;5.68;;
33826;SDS011;20128;45.582;5.298;2022-08-19T04:11:09;6.22;;;4.93;;
33826;SDS011;20128;45.582;5.298;2022-08-19T04:13:37;9.30;;;5.35;;
33826;SDS011;20128;45.582;5.298;2022-08-19T04:16:03;9.27;;;4.13;;
33826;SDS011;20128;45.582;5.298;2022-08-19T04:18:30;6.18;;;4.72;;
33826;SDS011;20128;45.582;5.298;2022-08-19T04:20:57;8.00;;;5.60;;
33826;SDS011;20128;45.582;5.298;2022-08-19T04:23:24;8.57;;;5.63;;
33826;SDS011;20128;45.582;5.298;2022-08-19T04:25:49;5.85;;;4.85;;
33826;SDS011;20128;45.582;5.298;2022-08-19T04:28:15;6.43;;;4.72;;
33826;SDS011;20128;45.582;5.298;2022-08-19T04:30:43;5.30;;;4.40;;
33826;SDS011;20128;45.582;5.298;2022-08-19T04:33:14;9.10;;;5.25;;
33826;SDS011;20128;45.582;5.298;2022-08-19T04:35:43;6.35;;;4.70;;
33826;SDS011;20128;45.582;5.298;2022-08-19T04:38:11;4.85;;;4.20;;
33826;SDS011;20128;45.582;5.298;2022-08-19T04:40:41;8.15;;;5.32;;
33826;SDS011;20128;45.582;5.298;2022-08-19T04:43:27;6.03;;;5.05;;
33826;SDS011;20128;45.582;5.298;2022-08-19T04:45:53;7.72;;;4.72;;
33826;SDS011;20128;45.582;5.298;2022-08-19T04:48:19;8.02;;;5.13;;
33826;SDS011;20128;45.582;5.298;2022-08-19T04:50:50;5.22;;;4.70;;
33826;SDS011;20128;45.582;5.298;2022-08-19T04:53:25;7.70;;;5.35;;
33826;SDS011;20128;45.582;5.298;2022-08-19T04:55:56;11.68;;;4.93;;
33826;SDS011;20128;45.582;5.298;2022-08-19T04:58:28;11.15;;;6.93;;
33826;SDS011;20128;45.582;5.298;2022-08-19T05:00:54;10.27;;;4.45;;
33826;SDS011;20128;45.582;5.298;2022-08-19T05:03:19;6.90;;;5.68;;
33826;SDS011;20128;45.582;5.298;2022-08-19T05:05:46;8.98;;;5.82;;
33826;SDS011;20128;45.582;5.298;2022-08-19T05:08:14;6.10;;;5.05;;
33826;SDS011;20128;45.582;5.298;2022-08-19T05:10:46;6.82;;;4.97;;
33826;SDS011;20128;45.582;5.298;2022-08-19T05:13:13;8.55;;;6.40;;
33826;SDS011;20128;45.582;5.298;2022-08-19T05:15:41;8.05;;;6.32;;
33826;SDS011;20128;45.582;5.298;2022-08-19T05:18:07;7.68;;;6.10;;
33826;SDS011;20128;45.582;5.298;2022-08-19T05:20:52;8.20;;;5.43;;
33826;SDS011;20128;45.582;5.298;2022-08-19T05:23:43;5.63;;;4.97;;
33826;SDS011;20128;45.582;5.298;2022-08-19T05:26:09;9.85;;;5.50;;
33826;SDS011;20128;45.582;5.298;2022-08-19T05:28:35;6.38;;;4.65;;
33826;SDS011;20128;45.582;5.298;2022-08-19T05:31:01;9.35;;;6.25;;
33826;SDS011;20128;45.582;5.298;2022-08-19T05:33:27;6.75;;;5.13;;
33826;SDS011;20128;45.582;5.298;2022-08-19T05:35:52;12.27;;;6.43;;
33826;SDS011;20128;45.582;5.298;2022-08-19T05:38:18;7.78;;;4.78;;
33826;SDS011;20128;45.582;5.298;2022-08-19T05:40:45;9.38;;;5.10;;
33826;SDS011;20128;45.582;5.298;2022-08-19T05:43:14;13.15;;;6.15;;
33826;SDS011;20128;45.582;5.298;2022-08-19T05:45:41;6.72;;;4.88;;
33826;SDS011;20128;45.582;5.298;2022-08-19T05:48:08;8.85;;;6.72;;
33826;SDS011;20128;45.582;5.298;2022-08-19T05:50:39;7.80;;;5.78;;
33826;SDS011;20128;45.582;5.298;2022-08-19T05:53:06;6.80;;;5.60;;
33826;SDS011;20128;45.582;5.298;2022-08-19T05:55:33;7.35;;;4.75;;
33826;SDS011;20128;45.582;5.298;2022-08-19T05:57:59;7.70;;;5.75;;
33826;SDS011;20128;45.582;5.298;2022-08-19T06:00:26;9.40;;;6.68;;
33826;SDS011;20128;45.582;5.298;2022-08-19T06:02:52;9.43;;;5.25;;
33826;SDS011;20128;45.582;5.298;2022-08-19T06:05:20;9.25;;;5.28;;
33826;SDS011;20128;45.582;5.298;2022-08-19T06:07:46;8.85;;;6.60;;
33826;SDS011;20128;45.582;5.298;2022-08-19T06:10:12;7.45;;;5.30;;
33826;SDS011;20128;45.582;5.298;2022-08-19T06:12:38;6.35;;;5.28;;
33826;SDS011;20128;45.582;5.298;2022-08-19T06:15:05;7.25;;;5.28;;
33826;SDS011;20128;45.582;5.298;2022-08-19T06:17:33;7.25;;;5.45;;
33826;SDS011;20128;45.582;5.298;2022-08-19T06:20:00;9.75;;;6.00;;
33826;SDS011;20128;45.582;5.298;2022-08-19T06:22:27;7.55;;;5.10;;
33826;SDS011;20128;45.582;5.298;2022-08-19T06:24:54;9.85;;;6.72;;
33826;SDS011;20128;45.582;5.298;2022-08-19T06:27:20;9.13;;;5.80;;
33826;SDS011;20128;45.582;5.298;2022-08-19T06:29:46;10.25;;;6.00;;
33826;SDS011;20128;45.582;5.298;2022-08-19T06:32:14;10.75;;;7.07;;
33826;SDS011;20128;45.582;5.298;2022-08-19T06:34:41;8.38;;;5.72;;
33826;SDS011;20128;45.582;5.298;2022-08-19T06:37:07;8.05;;;4.57;;
33826;SDS011;20128;45.582;5.298;2022-08-19T06:39:38;7.80;;;4.72;;
33826;SDS011;20128;45.582;5.298;2022-08-19T06:42:05;16.08;;;5.85;;
33826;SDS011;20128;45.582;5.298;2022-08-19T06:44:34;8.50;;;6.32;;
33826;SDS011;20128;45.582;5.298;2022-08-19T06:47:05;8.70;;;6.00;;
33826;SDS011;20128;45.582;5.298;2022-08-19T06:49:34;11.50;;;5.75;;
33826;SDS011;20128;45.582;5.298;2022-08-19T06:52:00;15.35;;;7.22;;
33826;SDS011;20128;45.582;5.298;2022-08-19T06:54:27;11.35;;;5.88;;
33826;SDS011;20128;45.582;5.298;2022-08-19T06:56:54;13.93;;;7.05;;
33826;SDS011;20128;45.582;5.298;2022-08-19T06:59:22;11.88;;;6.95;;
33826;SDS011;20128;45.582;5.298;2022-08-19T07:01:54;9.52;;;6.43;;
33826;SDS011;20128;45.582;5.298;2022-08-19T07:04:25;7.00;;;6.07;;
33826;SDS011;20128;45.582;5.298;2022-08-19T07:06:59;11.70;;;7.00;;
33826;SDS011;20128;45.582;5.298;2022-08-19T07:09:38;12.60;;;7.00;;
33826;SDS011;20128;45.582;5.298;2022-08-19T07:12:06;9.88;;;6.38;;
33826;SDS011;20128;45.582;5.298;2022-08-19T07:14:34;10.85;;;6.22;;
33826;SDS011;20128;45.582;5.298;2022-08-19T07:17:07;11.88;;;6.45;;
33826;SDS011;20128;45.582;5.298;2022-08-19T07:19:36;18.48;;;7.65;;
33826;SDS011;20128;45.582;5.298;2022-08-19T07:22:03;9.70;;;5.50;;
33826;SDS011;20128;45.582;5.298;2022-08-19T07:24:31;8.38;;;6.93;;
33826;SDS011;20128;45.582;5.298;2022-08-19T07:26:59;12.65;;;7.13;;
33826;SDS011;20128;45.582;5.298;2022-08-19T07:29:27;13.05;;;7.00;;
33826;SDS011;20128;45.582;5.298;2022-08-19T07:31:54;12.20;;;6.45;;
33826;SDS011;20128;45.582;5.298;2022-08-19T07:34:22;9.27;;;7.55;;
33826;SDS011;20128;45.582;5.298;2022-08-19T07:36:48;7.25;;;6.13;;
33826;SDS011;20128;45.582;5.298;2022-08-19T07:39:18;8.20;;;6.50;;
33826;SDS011;20128;45.582;5.298;2022-08-19T07:41:47;8.75;;;6.72;;
33826;SDS011;20128;45.582;5.298;2022-08-19T07:44:14;10.80;;;6.80;;
33826;SDS011;20128;45.582;5.298;2022-08-19T07:46:42;14.05;;;6.85;;
33826;SDS011;20128;45.582;5.298;2022-08-19T07:49:10;13.80;;;7.68;;
33826;SDS011;20128;45.582;5.298;2022-08-19T07:51:42;13.77;;;7.28;;
33826;SDS011;20128;45.582;5.298;2022-08-19T07:54:08;10.50;;;7.45;;
33826;SDS011;20128;45.582;5.298;2022-08-19T07:56:34;12.07;;;7.80;;
33826;SDS011;20128;45.582;5.298;2022-08-19T07:59:00;12.80;;;7.20;;
33826;SDS011;20128;45.582;5.298;2022-08-19T08:01:26;13.80;;;8.32;;
33826;SDS011;20128;45.582;5.298;2022-08-19T08:03:53;9.43;;;7.05;;
33826;SDS011;20128;45.582;5.298;2022-08-19T08:06:39;14.88;;;8.65;;
33826;SDS011;20128;45.582;5.298;2022-08-19T08:09:26;13.20;;;7.45;;
33826;SDS011;20128;45.582;5.298;2022-08-19T08:12:23;14.85;;;6.70;;
33826;SDS011;20128;45.582;5.298;2022-08-19T08:14:51;11.45;;;6.03;;
33826;SDS011;20128;45.582;5.298;2022-08-19T08:17:20;14.07;;;4.90;;
33826;SDS011;20128;45.582;5.298;2022-08-19T08:19:47;14.95;;;7.47;;
33826;SDS011;20128;45.582;5.298;2022-08-19T08:22:15;8.43;;;5.28;;
33826;SDS011;20128;45.582;5.298;2022-08-19T08:25:05;15.02;;;7.65;;
33826;SDS011;20128;45.582;5.298;2022-08-19T08:27:37;8.80;;;7.78;;
33826;SDS011;20128;45.582;5.298;2022-08-19T08:30:05;9.05;;;5.85;;
33826;SDS011;20128;45.582;5.298;2022-08-19T08:32:34;12.25;;;4.93;;
33826;SDS011;20128;45.582;5.298;2022-08-19T08:35:02;15.55;;;7.32;;
33826;SDS011;20128;45.582;5.298;2022-08-19T08:37:33;11.02;;;7.22;;
33826;SDS011;20128;45.582;5.298;2022-08-19T08:40:01;13.77;;;7.43;;
33826;SDS011;20128;45.582;5.298;2022-08-19T08:42:32;12.52;;;8.50;;
33826;SDS011;20128;45.582;5.298;2022-08-19T08:45:03;13.48;;;8.02;;
33826;SDS011;20128;45.582;5.298;2022-08-19T08:47:40;14.50;;;7.78;;
33826;SDS011;20128;45.582;5.298;2022-08-19T08:50:18;8.82;;;6.57;;
33826;SDS011;20128;45.582;5.298;2022-08-19T08:52:52;15.23;;;9.32;;
33826;SDS011;20128;45.582;5.298;2022-08-19T08:55:22;13.37;;;9.27;;
33826;SDS011;20128;45.582;5.298;2022-08-19T08:57:53;12.82;;;9.40;;
33826;SDS011;20128;45.582;5.298;2022-08-19T09:00:51;13.27;;;9.27;;
33826;SDS011;20128;45.582;5.298;2022-08-19T09:06:06;14.07;;;9.15;;
33826;SDS011;20128;45.582;5.298;2022-08-19T09:16:57;16.25;;;10.23;;
33826;SDS011;20128;45.582;5.298;2022-08-19T09:19:24;13.38;;;8.15;;
33826;SDS011;20128;45.582;5.298;2022-08-19T09:21:50;14.45;;;10.15;;
33826;SDS011;20128;45.582;5.298;2022-08-19T09:24:15;20.70;;;9.65;;
33826;SDS011;20128;45.582;5.298;2022-08-19T09:26:41;12.93;;;7.63;;
33826;SDS011;20128;45.582;5.298;2022-08-19T09:29:08;16.67;;;10.10;;
33826;SDS011;20128;45.582;5.298;2022-08-19T09:31:35;14.10;;;10.23;;
33826;SDS011;20128;45.582;5.298;2022-08-19T09:34:02;15.23;;;8.73;;
33826;SDS011;20128;45.582;5.298;2022-08-19T09:36:29;7.28;;;5.55;;
33826;SDS011;20128;45.582;5.298;2022-08-19T09:38:58;16.67;;;9.98;;
33826;SDS011;20128;45.582;5.298;2022-08-19T09:41:25;12.52;;;9.02;;
33826;SDS011;20128;45.582;5.298;2022-08-19T09:43:52;20.05;;;13.18;;
33826;SDS011;20128;45.582;5.298;2022-08-19T09:46:23;17.65;;;10.07;;
33826;SDS011;20128;45.582;5.298;2022-08-19T09:48:51;9.05;;;7.50;;
33826;SDS011;20128;45.582;5.298;2022-08-19T09:51:18;23.00;;;12.48;;
33826;SDS011;20128;45.582;5.298;2022-08-19T09:53:47;15.70;;;10.57;;
33826;SDS011;20128;45.582;5.298;2022-08-19T09:56:18;23.52;;;10.73;;
33826;SDS011;20128;45.582;5.298;2022-08-19T09:58:45;17.98;;;11.70;;
33826;SDS011;20128;45.582;5.298;2022-08-19T10:01:22;15.50;;;9.18;;
33826;SDS011;20128;45.582;5.298;2022-08-19T10:03:50;17.48;;;11.10;;
33826;SDS011;20128;45.582;5.298;2022-08-19T10:06:18;18.67;;;13.40;;
33826;SDS011;20128;45.582;5.298;2022-08-19T10:08:45;16.25;;;13.32;;
33826;SDS011;20128;45.582;5.298;2022-08-19T10:11:11;16.98;;;12.60;;
33826;SDS011;20128;45.582;5.298;2022-08-19T10:13:39;16.27;;;10.48;;
33826;SDS011;20128;45.582;5.298;2022-08-19T10:16:06;16.55;;;12.10;;
33826;SDS011;20128;45.582;5.298;2022-08-19T10:18:34;17.23;;;12.75;;
33826;SDS011;20128;45.582;5.298;2022-08-19T10:21:08;23.52;;;11.80;;
33826;SDS011;20128;45.582;5.298;2022-08-19T10:23:39;16.80;;;11.40;;
33826;SDS011;20128;45.582;5.298;2022-08-19T10:26:09;20.20;;;12.15;;
33826;SDS011;20128;45.582;5.298;2022-08-19T10:28:36;17.27;;;11.75;;
33826;SDS011;20128;45.582;5.298;2022-08-19T10:31:10;24.08;;;12.70;;
33826;SDS011;20128;45.582;5.298;2022-08-19T10:33:37;17.48;;;12.75;;
33826;SDS011;20128;45.582;5.298;2022-08-19T10:36:12;22.58;;;12.60;;
33826;SDS011;20128;45.582;5.298;2022-08-19T10:38:43;20.67;;;13.57;;
33826;SDS011;20128;45.582;5.298;2022-08-19T10:41:13;18.60;;;12.80;;
33826;SDS011;20128;45.582;5.298;2022-08-19T10:43:44;21.80;;;13.85;;
33826;SDS011;20128;45.582;5.298;2022-08-19T10:46:12;21.90;;;12.85;;
33826;SDS011;20128;45.582;5.298;2022-08-19T10:48:40;18.58;;;13.75;;
33826;SDS011;20128;45.582;5.298;2022-08-19T10:51:07;17.60;;;11.77;;
33826;SDS011;20128;45.582;5.298;2022-08-19T10:53:51;23.30;;;15.65;;
33826;SDS011;20128;45.582;5.298;2022-08-19T10:56:17;17.40;;;13.10;;
33826;SDS011;20128;45.582;5.298;2022-08-19T10:59:02;19.88;;;11.68;;
33826;SDS011;20128;45.582;5.298;2022-08-19T11:01:28;26.33;;;12.57;;
33826;SDS011;20128;45.582;5.298;2022-08-19T11:03:55;17.63;;;12.80;;
33826;SDS011;20128;45.582;5.298;2022-08-19T11:06:22;17.38;;;11.73;;
33826;SDS011;20128;45.582;5.298;2022-08-19T11:08:50;19.55;;;13.68;;
33826;SDS011;20128;45.582;5.298;2022-08-19T11:11:16;15.25;;;12.10;;
33826;SDS011;20128;45.582;5.298;2022-08-19T11:13:42;22.85;;;14.30;;
33826;SDS011;20128;45.582;5.298;2022-08-19T11:16:13;24.48;;;14.48;;
33826;SDS011;20128;45.582;5.298;2022-08-19T11:18:47;17.90;;;12.48;;
33826;SDS011;20128;45.582;5.298;2022-08-19T11:21:18;20.90;;;11.75;;
33826;SDS011;20128;45.582;5.298;2022-08-19T11:23:49;19.75;;;12.32;;
33826;SDS011;20128;45.582;5.298;2022-08-19T11:26:16;20.33;;;11.55;;
33826;SDS011;20128;45.582;5.298;2022-08-19T11:28:42;19.33;;;12.98;;
33826;SDS011;20128;45.582;5.298;2022-08-19T11:31:09;17.73;;;11.73;;
33826;SDS011;20128;45.582;5.298;2022-08-19T11:33:36;19.30;;;11.80;;
33826;SDS011;20128;45.582;5.298;2022-08-19T11:36:02;16.60;;;12.02;;
33826;SDS011;20128;45.582;5.298;2022-08-19T11:38:28;18.40;;;13.70;;
33826;SDS011;20128;45.582;5.298;2022-08-19T11:41:03;18.90;;;13.07;;
33826;SDS011;20128;45.582;5.298;2022-08-19T11:43:31;20.42;;;13.00;;
33826;SDS011;20128;45.582;5.298;2022-08-19T11:45:57;18.48;;;11.77;;
33826;SDS011;20128;45.582;5.298;2022-08-19T11:48:23;20.33;;;12.38;;
33826;SDS011;20128;45.582;5.298;2022-08-19T11:50:50;19.17;;;10.77;;
33826;SDS011;20128;45.582;5.298;2022-08-19T11:53:18;16.92;;;12.52;;
33826;SDS011;20128;45.582;5.298;2022-08-19T11:55:45;17.50;;;12.70;;
33826;SDS011;20128;45.582;5.298;2022-08-19T11:58:13;16.42;;;11.18;;
33826;SDS011;20128;45.582;5.298;2022-08-19T12:00:40;18.23;;;11.23;;
33826;SDS011;20128;45.582;5.298;2022-08-19T12:03:06;17.95;;;12.43;;
33826;SDS011;20128;45.582;5.298;2022-08-19T12:05:32;18.90;;;11.30;;
33826;SDS011;20128;45.582;5.298;2022-08-19T12:07:58;15.13;;;12.23;;
33826;SDS011;20128;45.582;5.298;2022-08-19T12:10:23;17.20;;;11.98;;
33826;SDS011;20128;45.582;5.298;2022-08-19T12:12:49;15.32;;;11.40;;
33826;SDS011;20128;45.582;5.298;2022-08-19T12:15:15;16.65;;;11.00;;
33826;SDS011;20128;45.582;5.298;2022-08-19T12:17:41;22.38;;;13.90;;
33826;SDS011;20128;45.582;5.298;2022-08-19T12:20:09;17.45;;;12.20;;
33826;SDS011;20128;45.582;5.298;2022-08-19T12:22:37;17.25;;;11.52;;
33826;SDS011;20128;45.582;5.298;2022-08-19T12:25:03;15.48;;;11.38;;
33826;SDS011;20128;45.582;5.298;2022-08-19T12:27:30;17.98;;;11.82;;
33826;SDS011;20128;45.582;5.298;2022-08-19T12:29:56;18.38;;;10.98;;
33826;SDS011;20128;45.582;5.298;2022-08-19T12:32:22;19.13;;;11.48;;
33826;SDS011;20128;45.582;5.298;2022-08-19T12:34:49;18.33;;;11.32;;
33826;SDS011;20128;45.582;5.298;2022-08-19T12:37:15;17.60;;;12.48;;
33826;SDS011;20128;45.582;5.298;2022-08-19T12:39:41;20.35;;;10.98;;
33826;SDS011;20128;45.582;5.298;2022-08-19T12:42:09;16.13;;;10.43;;
33826;SDS011;20128;45.582;5.298;2022-08-19T12:44:37;14.70;;;8.88;;
33826;SDS011;20128;45.582;5.298;2022-08-19T12:47:04;12.65;;;10.85;;
33826;SDS011;20128;45.582;5.298;2022-08-19T12:49:32;17.02;;;9.40;;
33826;SDS011;20128;45.582;5.298;2022-08-19T12:52:02;16.27;;;10.75;;
33826;SDS011;20128;45.582;5.298;2022-08-19T12:54:29;19.83;;;12.82;;
33826;SDS011;20128;45.582;5.298;2022-08-19T12:56:56;16.90;;;10.65;;
33826;SDS011;20128;45.582;5.298;2022-08-19T12:59:22;20.40;;;10.85;;
33826;SDS011;20128;45.582;5.298;2022-08-19T13:01:48;17.00;;;9.80;;
33826;SDS011;20128;45.582;5.298;2022-08-19T13:04:14;19.42;;;12.95;;
33826;SDS011;20128;45.582;5.298;2022-08-19T13:06:41;15.02;;;9.77;;
33826;SDS011;20128;45.582;5.298;2022-08-19T13:09:07;14.48;;;10.68;;
33826;SDS011;20128;45.582;5.298;2022-08-19T13:11:33;18.33;;;11.13;;
33826;SDS011;20128;45.582;5.298;2022-08-19T13:14:00;14.48;;;11.02;;
33826;SDS011;20128;45.582;5.298;2022-08-19T13:16:27;17.20;;;9.60;;
33826;SDS011;20128;45.582;5.298;2022-08-19T13:18:53;14.30;;;9.35;;
33826;SDS011;20128;45.582;5.298;2022-08-19T13:21:21;15.02;;;8.57;;
33826;SDS011;20128;45.582;5.298;2022-08-19T13:23:49;14.02;;;9.65;;
33826;SDS011;20128;45.582;5.298;2022-08-19T13:26:15;11.88;;;8.50;;
33826;SDS011;20128;45.582;5.298;2022-08-19T13:28:43;15.90;;;9.13;;
33826;SDS011;20128;45.582;5.298;2022-08-19T13:31:29;18.45;;;9.65;;
33826;SDS011;20128;45.582;5.298;2022-08-19T13:34:15;14.93;;;10.90;;
33826;SDS011;20128;45.582;5.298;2022-08-19T13:36:44;16.23;;;9.13;;
33826;SDS011;20128;45.582;5.298;2022-08-19T13:39:09;15.13;;;9.27;;
33826;SDS011;20128;45.582;5.298;2022-08-19T13:41:36;16.30;;;10.02;;
33826;SDS011;20128;45.582;5.298;2022-08-19T13:44:02;15.95;;;9.98;;
33826;SDS011;20128;45.582;5.298;2022-08-19T13:46:29;14.38;;;9.88;;
33826;SDS011;20128;45.582;5.298;2022-08-19T13:48:55;14.50;;;8.32;;
33826;SDS011;20128;45.582;5.298;2022-08-19T13:51:22;12.65;;;8.18;;
33826;SDS011;20128;45.582;5.298;2022-08-19T13:53:48;13.57;;;10.13;;
33826;SDS011;20128;45.582;5.298;2022-08-19T13:56:15;14.07;;;9.50;;
33826;SDS011;20128;45.582;5.298;2022-08-19T13:58:42;11.82;;;8.75;;
33826;SDS011;20128;45.582;5.298;2022-08-19T14:01:08;14.52;;;7.70;;
33826;SDS011;20128;45.582;5.298;2022-08-19T14:03:35;10.20;;;7.60;;
33826;SDS011;20128;45.582;5.298;2022-08-19T14:06:01;17.08;;;8.27;;
33826;SDS011;20128;45.582;5.298;2022-08-19T14:08:27;13.98;;;6.88;;
33826;SDS011;20128;45.582;5.298;2022-08-19T14:10:55;12.93;;;9.10;;
33826;SDS011;20128;45.582;5.298;2022-08-19T14:13:21;11.68;;;8.50;;
33826;SDS011;20128;45.582;5.298;2022-08-19T14:15:48;12.35;;;8.48;;
33826;SDS011;20128;45.582;5.298;2022-08-19T14:18:15;12.60;;;8.82;;
33826;SDS011;20128;45.582;5.298;2022-08-19T14:20:42;11.50;;;7.50;;
33826;SDS011;20128;45.582;5.298;2022-08-19T14:23:08;11.98;;;7.50;;
33826;SDS011;20128;45.582;5.298;2022-08-19T14:25:35;17.10;;;8.55;;
33826;SDS011;20128;45.582;5.298;2022-08-19T14:28:01;16.85;;;8.07;;
33826;SDS011;20128;45.582;5.298;2022-08-19T14:30:29;13.23;;;7.97;;
33826;SDS011;20128;45.582;5.298;2022-08-19T14:32:58;15.70;;;7.50;;
33826;SDS011;20128;45.582;5.298;2022-08-19T14:35:26;18.02;;;6.60;;
33826;SDS011;20128;45.582;5.298;2022-08-19T14:37:53;9.57;;;7.07;;
33826;SDS011;20128;45.582;5.298;2022-08-19T14:40:20;10.07;;;7.05;;
33826;SDS011;20128;45.582;5.298;2022-08-19T14:42:47;9.18;;;6.57;;
33826;SDS011;20128;45.582;5.298;2022-08-19T14:45:13;11.70;;;6.55;;
33826;SDS011;20128;45.582;5.298;2022-08-19T14:47:39;12.77;;;6.75;;
33826;SDS011;20128;45.582;5.298;2022-08-19T14:50:08;8.68;;;5.97;;
33826;SDS011;20128;45.582;5.298;2022-08-19T14:52:35;10.65;;;5.85;;
33826;SDS011;20128;45.582;5.298;2022-08-19T14:55:01;9.25;;;5.65;;
33826;SDS011;20128;45.582;5.298;2022-08-19T14:57:31;8.27;;;5.50;;